»·PEaware :: N13005 KBFL-KSAN

N13005 :: KBFL-KSAN

FLIGHT INFORMATION

Flight Status: Arrived
Operator: Privately registered:
United States
More flights under this callsign
Pilot: Kaloso N. (23070)
Aircraft: BOEING 737-800
(B738)
More flights by this aircraft type
Origin: KBFL Meadows
United States
Destination: KSAN San Diego Intl-Lindbergh
United States
More flights between these airports :: More routes between these airports
Route: MEAD4 AMONT V165 SAUGS SLI V597 MZB
File this flight plan on PilotEdge
Remarks: NONE
Altitude:
(Current/Filed)
15,000ft
Speed:
(Current/Filed)
290kts
Departed: 03-Feb-20 09:44 PM
Arrived: 03-Feb-20 10:41 PM
Distance/Time
Traveled:
186nm/0:57
Distance/Time
To Go:
Arrived

Flight Plot

Page will automatically refresh every two minutes.

Flight plan parsing failed; only flown route is shown


Map Options




Map Legend


Flown Route
Filed Route
Departure Airport
Arrival Airport
Navaid (VOR, NDB)
Fix

Horizontal Profiles

Position Reports

Time Latitude Longitude Heading Altitude Ground
Speed
03-Feb-20 21:36 35.437537 -119.055410 267 504ft 0kts
03-Feb-20 21:37 35.437537 -119.055410 267 504ft 0kts
03-Feb-20 21:38 35.437537 -119.055410 267 504ft 0kts
03-Feb-20 21:39 35.437537 -119.055410 267 504ft 0kts
03-Feb-20 21:40 35.437537 -119.055410 267 504ft 0kts
03-Feb-20 21:41 35.437537 -119.055416 267 504ft 0kts
03-Feb-20 21:42 35.438252 -119.059310 316 501ft 18kts
03-Feb-20 21:43 35.445759 -119.068403 315 511ft 41kts
03-Feb-20 21:44 35.446957 -119.070292 229 513ft 0kts
03-Feb-20 21:45 35.446957 -119.070292 229 513ft 0kts
03-Feb-20 21:46 35.446957 -119.070292 229 513ft 0kts
03-Feb-20 21:47 35.446957 -119.070293 229 513ft 0kts
03-Feb-20 21:48 35.443987 -119.068462 135 507ft 79kts
03-Feb-20 21:49 35.422820 -119.043014 134 1199ft 185kts
03-Feb-20 21:50 35.387348 -118.997039 133 2849ft 239kts
03-Feb-20 21:51 35.343777 -118.940195 133 4576ft 265kts
03-Feb-20 21:52 35.297255 -118.880388 136 6293ft 272kts
03-Feb-20 21:53 35.242928 -118.820255 137 8223ft 279kts
03-Feb-20 21:54 35.187372 -118.760120 146 10513ft 291kts
03-Feb-20 21:55 35.106502 -118.727865 163 12852ft 298kts
03-Feb-20 21:56 35.031552 -118.701290 163 14962ft 306kts
03-Feb-20 21:57 34.957101 -118.674642 163 16784ft 315kts
03-Feb-20 21:58 34.881985 -118.647787 163 18422ft 323kts
03-Feb-20 21:59 34.806158 -118.620732 163 20001ft 327kts
03-Feb-20 22:00 34.722328 -118.590895 163 19266ft 383kts
03-Feb-20 22:01 34.632638 -118.547804 153 16986ft 380kts
03-Feb-20 22:02 34.548828 -118.498247 153 15156ft 365kts
03-Feb-20 22:03 34.456637 -118.444333 153 14935ft 374kts
03-Feb-20 22:04 34.380192 -118.399727 153 13554ft 363kts
03-Feb-20 22:05 34.313991 -118.361175 153 12070ft 351kts
03-Feb-20 22:06 34.252840 -118.325624 154 10856ft 337kts
03-Feb-20 22:07 34.190101 -118.289210 154 10835ft 339kts
03-Feb-20 22:08 34.105415 -118.240151 154 10835ft 339kts
03-Feb-20 22:09 34.029034 -118.195997 154 10835ft 339kts
03-Feb-20 22:10 33.954701 -118.153111 154 10835ft 339kts
03-Feb-20 22:11 33.874305 -118.106822 154 10835ft 339kts
03-Feb-20 22:12 33.789839 -118.058070 150 10832ft 339kts
03-Feb-20 22:13 33.720620 -117.980685 135 10835ft 339kts
03-Feb-20 22:14 33.654153 -117.902030 135 10835ft 339kts
03-Feb-20 22:15 33.592523 -117.829410 135 10835ft 339kts
03-Feb-20 22:16 33.523919 -117.748756 135 10835ft 339kts
03-Feb-20 22:17 33.453197 -117.665761 135 10835ft 339kts
03-Feb-20 22:18 33.386914 -117.588202 135 10835ft 339kts
03-Feb-20 22:19 33.318669 -117.508516 135 10835ft 339kts
03-Feb-20 22:20 33.257681 -117.437550 135 10835ft 339kts
03-Feb-20 22:21 33.185992 -117.394062 161 10834ft 339kts
03-Feb-20 22:22 33.104026 -117.360215 160 10835ft 339kts
03-Feb-20 22:23 33.024066 -117.330391 174 10848ft 339kts
03-Feb-20 22:24 32.928310 -117.324697 176 10835ft 339kts
03-Feb-20 22:25 32.839697 -117.314096 159 10717ft 336kts
03-Feb-20 22:26 32.795094 -117.255264 105 10156ft 299kts
03-Feb-20 22:27 32.782716 -117.186434 101 9371ft 282kts
03-Feb-20 22:28 32.771124 -117.117916 101 8497ft 271kts
03-Feb-20 22:29 32.759150 -117.047029 101 7268ft 265kts
03-Feb-20 22:30 32.748473 -116.983742 101 6078ft 261kts
03-Feb-20 22:31 32.738307 -116.923412 101 4884ft 255kts
03-Feb-20 22:32 32.704776 -116.875163 174 4398ft 244kts
03-Feb-20 22:33 32.671453 -116.922841 285 3828ft 218kts
03-Feb-20 22:34 32.700999 -116.974795 281 3871ft 216kts
03-Feb-20 22:35 32.698548 -117.034717 274 3592ft 189kts
03-Feb-20 22:36 32.707355 -117.081620 286 2356ft 170kts
03-Feb-20 22:37 32.716097 -117.117660 286 1467ft 151kts
03-Feb-20 22:38 32.723604 -117.148615 285 799ft 152kts
03-Feb-20 22:39 32.730528 -117.177468 285 126ft 148kts
03-Feb-20 22:40 32.734294 -117.194571 251 21ft 29kts
03-Feb-20 22:41 32.733756 -117.197512 254 17ft 10kts
03-Feb-20 22:42 32.733695 -117.197767 254 17ft 0kts
03-Feb-20 22:43 32.733678 -117.197841 254 17ft 0kts
03-Feb-20 22:44 32.733678 -117.197841 254 17ft 0kts

Navigation Log

Ident Type
Flight plan parsing failed, navigation log unavailable